sensor_id;sensor_type;location;lat;lon;timestamp;P1;durP1;ratioP1;P2;durP2;ratioP2
3141;SDS011;1581;51.568;6.998;2024-03-23T00:53:50;14.37;;;2.63;;
3141;SDS011;1581;51.568;6.998;2024-03-23T00:56:17;13.40;;;2.60;;
3141;SDS011;1581;51.568;6.998;2024-03-23T00:58:45;11.97;;;2.50;;
3141;SDS011;1581;51.568;6.998;2024-03-23T01:01:11;8.80;;;2.43;;
3141;SDS011;1581;51.568;6.998;2024-03-23T01:03:38;18.73;;;3.17;;
3141;SDS011;1581;51.568;6.998;2024-03-23T01:06:04;9.47;;;3.03;;
3141;SDS011;1581;51.568;6.998;2024-03-23T01:08:31;17.87;;;3.07;;
3141;SDS011;1581;51.568;6.998;2024-03-23T01:10:58;15.00;;;2.57;;
3141;SDS011;1581;51.568;6.998;2024-03-23T01:13:27;12.53;;;3.20;;
3141;SDS011;1581;51.568;6.998;2024-03-23T01:15:54;8.60;;;3.00;;
3141;SDS011;1581;51.568;6.998;2024-03-23T01:18:23;6.63;;;2.70;;
3141;SDS011;1581;51.568;6.998;2024-03-23T01:20:51;12.03;;;2.77;;
3141;SDS011;1581;51.568;6.998;2024-03-23T01:23:18;12.20;;;2.30;;
3141;SDS011;1581;51.568;6.998;2024-03-23T01:25:51;15.50;;;3.10;;
3141;SDS011;1581;51.568;6.998;2024-03-23T01:28:18;10.43;;;2.63;;
3141;SDS011;1581;51.568;6.998;2024-03-23T01:30:46;10.10;;;2.33;;
3141;SDS011;1581;51.568;6.998;2024-03-23T01:33:13;7.30;;;2.73;;
3141;SDS011;1581;51.568;6.998;2024-03-23T01:35:39;6.87;;;2.50;;
3141;SDS011;1581;51.568;6.998;2024-03-23T01:38:06;7.77;;;1.70;;
3141;SDS011;1581;51.568;6.998;2024-03-23T01:40:33;12.30;;;4.73;;
3141;SDS011;1581;51.568;6.998;2024-03-23T01:43:02;9.63;;;1.97;;
3141;SDS011;1581;51.568;6.998;2024-03-23T01:45:30;9.07;;;2.07;;
3141;SDS011;1581;51.568;6.998;2024-03-23T01:47:59;13.37;;;2.57;;
3141;SDS011;1581;51.568;6.998;2024-03-23T01:50:25;7.10;;;2.30;;
3141;SDS011;1581;51.568;6.998;2024-03-23T01:52:53;8.30;;;2.40;;
3141;SDS011;1581;51.568;6.998;2024-03-23T01:55:19;11.47;;;2.60;;
3141;SDS011;1581;51.568;6.998;2024-03-23T01:57:47;8.17;;;2.60;;
3141;SDS011;1581;51.568;6.998;2024-03-23T02:00:13;9.00;;;2.67;;
3141;SDS011;1581;51.568;6.998;2024-03-23T02:02:42;8.40;;;2.77;;
3141;SDS011;1581;51.568;6.998;2024-03-23T02:05:10;6.23;;;2.17;;
3141;SDS011;1581;51.568;6.998;2024-03-23T02:07:38;5.73;;;2.10;;
3141;SDS011;1581;51.568;6.998;2024-03-23T02:10:05;6.23;;;2.20;;
3141;SDS011;1581;51.568;6.998;2024-03-23T02:12:34;7.80;;;2.00;;
3141;SDS011;1581;51.568;6.998;2024-03-23T02:15:01;9.83;;;1.83;;
3141;SDS011;1581;51.568;6.998;2024-03-23T02:17:28;11.60;;;2.60;;
3141;SDS011;1581;51.568;6.998;2024-03-23T02:19:56;3.37;;;1.30;;
3141;SDS011;1581;51.568;6.998;2024-03-23T02:22:24;7.67;;;1.90;;
3141;SDS011;1581;51.568;6.998;2024-03-23T02:24:51;9.07;;;2.07;;
3141;SDS011;1581;51.568;6.998;2024-03-23T02:27:18;4.70;;;2.00;;
3141;SDS011;1581;51.568;6.998;2024-03-23T02:29:45;16.80;;;2.50;;
3141;SDS011;1581;51.568;6.998;2024-03-23T02:32:12;7.83;;;2.33;;
3141;SDS011;1581;51.568;6.998;2024-03-23T02:34:38;5.53;;;1.70;;
3141;SDS011;1581;51.568;6.998;2024-03-23T02:37:10;6.97;;;2.03;;
3141;SDS011;1581;51.568;6.998;2024-03-23T02:39:36;8.10;;;1.90;;
3141;SDS011;1581;51.568;6.998;2024-03-23T02:42:05;6.90;;;2.00;;
3141;SDS011;1581;51.568;6.998;2024-03-23T02:44:31;4.40;;;1.70;;
3141;SDS011;1581;51.568;6.998;2024-03-23T02:46:58;12.10;;;2.10;;
3141;SDS011;1581;51.568;6.998;2024-03-23T02:49:24;9.87;;;2.20;;
3141;SDS011;1581;51.568;6.998;2024-03-23T02:51:51;9.10;;;2.10;;
3141;SDS011;1581;51.568;6.998;2024-03-23T02:54:17;5.87;;;1.77;;
3141;SDS011;1581;51.568;6.998;2024-03-23T02:56:45;5.40;;;2.10;;
3141;SDS011;1581;51.568;6.998;2024-03-23T02:59:12;9.90;;;2.20;;
3141;SDS011;1581;51.568;6.998;2024-03-23T03:01:39;7.63;;;1.60;;
3141;SDS011;1581;51.568;6.998;2024-03-23T03:04:05;14.07;;;1.97;;
3141;SDS011;1581;51.568;6.998;2024-03-23T03:06:33;7.40;;;1.70;;
3141;SDS011;1581;51.568;6.998;2024-03-23T03:08:59;7.33;;;1.97;;
3141;SDS011;1581;51.568;6.998;2024-03-23T03:11:25;12.40;;;2.10;;
3141;SDS011;1581;51.568;6.998;2024-03-23T03:13:52;6.50;;;1.80;;
3141;SDS011;1581;51.568;6.998;2024-03-23T03:16:20;4.10;;;1.60;;
3141;SDS011;1581;51.568;6.998;2024-03-23T03:18:46;4.67;;;1.70;;
3141;SDS011;1581;51.568;6.998;2024-03-23T03:21:13;5.70;;;1.87;;
3141;SDS011;1581;51.568;6.998;2024-03-23T03:23:39;8.37;;;2.00;;
3141;SDS011;1581;51.568;6.998;2024-03-23T03:26:07;9.10;;;2.20;;
3141;SDS011;1581;51.568;6.998;2024-03-23T03:28:34;7.00;;;2.10;;
3141;SDS011;1581;51.568;6.998;2024-03-23T03:31:01;10.40;;;2.20;;
3141;SDS011;1581;51.568;6.998;2024-03-23T03:33:29;4.57;;;1.67;;
3141;SDS011;1581;51.568;6.998;2024-03-23T03:35:56;6.83;;;2.07;;
3141;SDS011;1581;51.568;6.998;2024-03-23T03:38:22;4.83;;;1.70;;
3141;SDS011;1581;51.568;6.998;2024-03-23T03:40:49;5.87;;;1.63;;
3141;SDS011;1581;51.568;6.998;2024-03-23T03:43:15;5.97;;;1.87;;
3141;SDS011;1581;51.568;6.998;2024-03-23T03:45:42;12.53;;;1.93;;
3141;SDS011;1581;51.568;6.998;2024-03-23T03:48:17;3.53;;;1.63;;
3141;SDS011;1581;51.568;6.998;2024-03-23T03:50:46;4.63;;;1.60;;
3141;SDS011;1581;51.568;6.998;2024-03-23T03:53:12;4.40;;;1.57;;
3141;SDS011;1581;51.568;6.998;2024-03-23T03:55:39;8.60;;;2.73;;
3141;SDS011;1581;51.568;6.998;2024-03-23T03:58:05;14.20;;;2.20;;
3141;SDS011;1581;51.568;6.998;2024-03-23T04:00:32;8.00;;;2.73;;
3141;SDS011;1581;51.568;6.998;2024-03-23T04:02:58;8.40;;;2.27;;
3141;SDS011;1581;51.568;6.998;2024-03-23T04:05:25;9.23;;;2.20;;
3141;SDS011;1581;51.568;6.998;2024-03-23T04:07:53;9.50;;;2.43;;
3141;SDS011;1581;51.568;6.998;2024-03-23T04:10:20;7.47;;;1.80;;
3141;SDS011;1581;51.568;6.998;2024-03-23T04:12:47;5.43;;;1.97;;
3141;SDS011;1581;51.568;6.998;2024-03-23T04:15:14;9.77;;;1.90;;
3141;SDS011;1581;51.568;6.998;2024-03-23T04:17:40;16.50;;;2.60;;
3141;SDS011;1581;51.568;6.998;2024-03-23T04:20:08;6.53;;;2.40;;
3141;SDS011;1581;51.568;6.998;2024-03-23T04:22:36;14.50;;;3.13;;
3141;SDS011;1581;51.568;6.998;2024-03-23T04:25:05;10.10;;;2.80;;
3141;SDS011;1581;51.568;6.998;2024-03-23T04:27:31;12.30;;;3.23;;
3141;SDS011;1581;51.568;6.998;2024-03-23T04:29:58;7.63;;;3.27;;
3141;SDS011;1581;51.568;6.998;2024-03-23T04:32:26;15.50;;;3.60;;
3141;SDS011;1581;51.568;6.998;2024-03-23T04:34:53;13.53;;;4.37;;
3141;SDS011;1581;51.568;6.998;2024-03-23T04:37:19;8.10;;;3.40;;
3141;SDS011;1581;51.568;6.998;2024-03-23T04:39:46;10.83;;;3.83;;
3141;SDS011;1581;51.568;6.998;2024-03-23T04:42:15;11.00;;;3.80;;
3141;SDS011;1581;51.568;6.998;2024-03-23T04:44:42;11.37;;;3.43;;
3141;SDS011;1581;51.568;6.998;2024-03-23T04:47:10;5.20;;;3.30;;
3141;SDS011;1581;51.568;6.998;2024-03-23T04:49:37;5.93;;;2.77;;
3141;SDS011;1581;51.568;6.998;2024-03-23T04:52:04;12.53;;;3.57;;
3141;SDS011;1581;51.568;6.998;2024-03-23T04:54:32;15.27;;;3.10;;
3141;SDS011;1581;51.568;6.998;2024-03-23T04:56:59;7.13;;;3.20;;
3141;SDS011;1581;51.568;6.998;2024-03-23T04:59:27;10.73;;;3.40;;
3141;SDS011;1581;51.568;6.998;2024-03-23T05:01:53;13.50;;;3.20;;
3141;SDS011;1581;51.568;6.998;2024-03-23T05:04:20;8.43;;;3.20;;
3141;SDS011;1581;51.568;6.998;2024-03-23T05:06:46;11.17;;;3.30;;
3141;SDS011;1581;51.568;6.998;2024-03-23T05:09:14;9.27;;;2.50;;
3141;SDS011;1581;51.568;6.998;2024-03-23T05:11:40;10.77;;;2.83;;
3141;SDS011;1581;51.568;6.998;2024-03-23T05:14:07;10.13;;;3.30;;
3141;SDS011;1581;51.568;6.998;2024-03-23T05:16:35;8.00;;;3.10;;
3141;SDS011;1581;51.568;6.998;2024-03-23T05:19:02;9.37;;;3.67;;
3141;SDS011;1581;51.568;6.998;2024-03-23T05:21:28;7.87;;;3.00;;
3141;SDS011;1581;51.568;6.998;2024-03-23T05:23:58;11.57;;;3.70;;
3141;SDS011;1581;51.568;6.998;2024-03-23T05:26:24;13.70;;;3.27;;
3141;SDS011;1581;51.568;6.998;2024-03-23T05:28:51;9.03;;;3.37;;
3141;SDS011;1581;51.568;6.998;2024-03-23T05:31:23;11.70;;;3.70;;
3141;SDS011;1581;51.568;6.998;2024-03-23T05:33:52;7.97;;;2.80;;
3141;SDS011;1581;51.568;6.998;2024-03-23T05:36:18;5.50;;;2.70;;
3141;SDS011;1581;51.568;6.998;2024-03-23T05:38:45;8.47;;;3.40;;
3141;SDS011;1581;51.568;6.998;2024-03-23T05:41:11;13.80;;;3.33;;
3141;SDS011;1581;51.568;6.998;2024-03-23T05:43:39;15.70;;;3.73;;
3141;SDS011;1581;51.568;6.998;2024-03-23T05:46:05;17.37;;;4.07;;
3141;SDS011;1581;51.568;6.998;2024-03-23T05:48:32;9.43;;;4.00;;
3141;SDS011;1581;51.568;6.998;2024-03-23T05:51:00;14.03;;;4.30;;
3141;SDS011;1581;51.568;6.998;2024-03-23T05:53:27;10.07;;;5.53;;
3141;SDS011;1581;51.568;6.998;2024-03-23T05:55:59;12.57;;;4.33;;
3141;SDS011;1581;51.568;6.998;2024-03-23T05:58:29;19.27;;;5.17;;
3141;SDS011;1581;51.568;6.998;2024-03-23T06:00:59;13.63;;;4.30;;
3141;SDS011;1581;51.568;6.998;2024-03-23T06:03:27;13.93;;;4.60;;
3141;SDS011;1581;51.568;6.998;2024-03-23T06:05:54;14.60;;;4.03;;
3141;SDS011;1581;51.568;6.998;2024-03-23T06:08:23;11.37;;;3.87;;
3141;SDS011;1581;51.568;6.998;2024-03-23T06:10:49;13.10;;;4.10;;
3141;SDS011;1581;51.568;6.998;2024-03-23T06:13:16;16.63;;;4.80;;
3141;SDS011;1581;51.568;6.998;2024-03-23T06:15:44;19.97;;;4.13;;
3141;SDS011;1581;51.568;6.998;2024-03-23T06:18:11;18.63;;;5.47;;
3141;SDS011;1581;51.568;6.998;2024-03-23T06:20:38;12.50;;;4.10;;
3141;SDS011;1581;51.568;6.998;2024-03-23T06:23:04;11.93;;;4.07;;
3141;SDS011;1581;51.568;6.998;2024-03-23T06:25:33;10.83;;;4.87;;
3141;SDS011;1581;51.568;6.998;2024-03-23T06:27:59;11.10;;;4.47;;
3141;SDS011;1581;51.568;6.998;2024-03-23T06:30:27;13.90;;;3.87;;
3141;SDS011;1581;51.568;6.998;2024-03-23T06:32:54;14.70;;;4.50;;
3141;SDS011;1581;51.568;6.998;2024-03-23T06:35:21;13.50;;;4.33;;
3141;SDS011;1581;51.568;6.998;2024-03-23T06:37:48;14.20;;;4.27;;
3141;SDS011;1581;51.568;6.998;2024-03-23T06:40:15;13.00;;;3.60;;
3141;SDS011;1581;51.568;6.998;2024-03-23T06:42:42;11.17;;;4.10;;
3141;SDS011;1581;51.568;6.998;2024-03-23T06:45:09;8.23;;;3.33;;
3141;SDS011;1581;51.568;6.998;2024-03-23T06:47:35;15.70;;;3.17;;
3141;SDS011;1581;51.568;6.998;2024-03-23T06:50:03;12.10;;;3.97;;
3141;SDS011;1581;51.568;6.998;2024-03-23T06:52:30;14.23;;;3.43;;
3141;SDS011;1581;51.568;6.998;2024-03-23T06:54:57;11.17;;;3.10;;
3141;SDS011;1581;51.568;6.998;2024-03-23T06:57:24;13.37;;;3.40;;
3141;SDS011;1581;51.568;6.998;2024-03-23T06:59:52;16.73;;;4.20;;
3141;SDS011;1581;51.568;6.998;2024-03-23T07:02:18;17.37;;;3.40;;
3141;SDS011;1581;51.568;6.998;2024-03-23T07:04:45;10.17;;;3.80;;
3141;SDS011;1581;51.568;6.998;2024-03-23T07:07:13;14.83;;;4.03;;
3141;SDS011;1581;51.568;6.998;2024-03-23T07:09:40;12.53;;;3.73;;
3141;SDS011;1581;51.568;6.998;2024-03-23T07:12:06;12.50;;;3.50;;
3141;SDS011;1581;51.568;6.998;2024-03-23T07:14:33;18.17;;;4.00;;
3141;SDS011;1581;51.568;6.998;2024-03-23T07:17:01;10.13;;;3.50;;
3141;SDS011;1581;51.568;6.998;2024-03-23T07:19:28;14.57;;;3.43;;
3141;SDS011;1581;51.568;6.998;2024-03-23T07:21:54;11.17;;;3.60;;
3141;SDS011;1581;51.568;6.998;2024-03-23T07:24:21;12.13;;;3.97;;
3141;SDS011;1581;51.568;6.998;2024-03-23T07:26:47;16.40;;;3.60;;
3141;SDS011;1581;51.568;6.998;2024-03-23T07:29:16;13.60;;;3.83;;
3141;SDS011;1581;51.568;6.998;2024-03-23T07:31:42;16.27;;;3.33;;
3141;SDS011;1581;51.568;6.998;2024-03-23T07:34:10;12.40;;;3.60;;
3141;SDS011;1581;51.568;6.998;2024-03-23T07:36:36;6.67;;;3.07;;
3141;SDS011;1581;51.568;6.998;2024-03-23T07:39:03;16.53;;;3.73;;
3141;SDS011;1581;51.568;6.998;2024-03-23T07:41:30;10.50;;;4.47;;
3141;SDS011;1581;51.568;6.998;2024-03-23T07:44:02;15.37;;;4.10;;
3141;SDS011;1581;51.568;6.998;2024-03-23T07:46:28;14.10;;;3.60;;
3141;SDS011;1581;51.568;6.998;2024-03-23T07:48:55;20.80;;;3.73;;
3141;SDS011;1581;51.568;6.998;2024-03-23T07:51:23;15.63;;;4.60;;
3141;SDS011;1581;51.568;6.998;2024-03-23T07:53:53;14.97;;;3.77;;
3141;SDS011;1581;51.568;6.998;2024-03-23T07:56:20;15.93;;;3.53;;
3141;SDS011;1581;51.568;6.998;2024-03-23T07:58:48;13.10;;;4.30;;
3141;SDS011;1581;51.568;6.998;2024-03-23T08:01:17;10.50;;;3.83;;
3141;SDS011;1581;51.568;6.998;2024-03-23T08:03:45;12.50;;;4.63;;
3141;SDS011;1581;51.568;6.998;2024-03-23T08:06:12;10.70;;;3.97;;
3141;SDS011;1581;51.568;6.998;2024-03-23T08:08:43;15.13;;;3.90;;
3141;SDS011;1581;51.568;6.998;2024-03-23T08:11:21;13.90;;;4.17;;
3141;SDS011;1581;51.568;6.998;2024-03-23T08:13:51;15.83;;;4.27;;
3141;SDS011;1581;51.568;6.998;2024-03-23T08:16:18;12.17;;;4.07;;
3141;SDS011;1581;51.568;6.998;2024-03-23T08:18:45;12.10;;;4.50;;
3141;SDS011;1581;51.568;6.998;2024-03-23T08:21:11;11.47;;;3.90;;
3141;SDS011;1581;51.568;6.998;2024-03-23T08:23:56;23.13;;;3.80;;
3141;SDS011;1581;51.568;6.998;2024-03-23T08:26:26;9.57;;;3.23;;
3141;SDS011;1581;51.568;6.998;2024-03-23T08:28:55;15.27;;;3.70;;
3141;SDS011;1581;51.568;6.998;2024-03-23T08:31:36;18.67;;;3.60;;
3141;SDS011;1581;51.568;6.998;2024-03-23T08:34:12;15.23;;;3.70;;
3141;SDS011;1581;51.568;6.998;2024-03-23T08:36:48;11.10;;;3.60;;
3141;SDS011;1581;51.568;6.998;2024-03-23T08:39:33;15.80;;;3.93;;
3141;SDS011;1581;51.568;6.998;2024-03-23T08:42:14;14.63;;;3.80;;
3141;SDS011;1581;51.568;6.998;2024-03-23T08:48:38;11.43;;;3.90;;
3141;SDS011;1581;51.568;6.998;2024-03-23T08:51:13;29.13;;;4.20;;
3141;SDS011;1581;51.568;6.998;2024-03-23T08:53:53;9.80;;;3.73;;
3141;SDS011;1581;51.568;6.998;2024-03-23T08:56:42;14.43;;;3.17;;
3141;SDS011;1581;51.568;6.998;2024-03-23T08:59:40;17.13;;;3.87;;
3141;SDS011;1581;51.568;6.998;2024-03-23T09:02:39;8.87;;;2.80;;
3141;SDS011;1581;51.568;6.998;2024-03-23T09:06:24;8.73;;;2.60;;
3141;SDS011;1581;51.568;6.998;2024-03-23T09:07:55;6.93;;;2.60;;
3141;SDS011;1581;51.568;6.998;2024-03-23T09:10:21;7.57;;;2.13;;
3141;SDS011;1581;51.568;6.998;2024-03-23T09:16:00;9.70;;;2.43;;
3141;SDS011;1581;51.568;6.998;2024-03-23T09:21:49;17.60;;;3.27;;
3141;SDS011;1581;51.568;6.998;2024-03-23T09:24:26;15.37;;;2.33;;
3141;SDS011;1581;51.568;6.998;2024-03-23T09:26:52;8.50;;;2.13;;
3141;SDS011;1581;51.568;6.998;2024-03-23T09:29:25;8.53;;;2.03;;
3141;SDS011;1581;51.568;6.998;2024-03-23T09:31:51;6.33;;;2.30;;
3141;SDS011;1581;51.568;6.998;2024-03-23T09:34:19;10.00;;;2.70;;
3141;SDS011;1581;51.568;6.998;2024-03-23T09:36:45;4.43;;;2.10;;
3141;SDS011;1581;51.568;6.998;2024-03-23T09:39:13;5.60;;;2.40;;
3141;SDS011;1581;51.568;6.998;2024-03-23T09:41:39;7.67;;;2.10;;
3141;SDS011;1581;51.568;6.998;2024-03-23T09:44:06;5.60;;;2.57;;
3141;SDS011;1581;51.568;6.998;2024-03-23T09:46:34;8.97;;;2.17;;
3141;SDS011;1581;51.568;6.998;2024-03-23T09:49:03;7.63;;;2.63;;
3141;SDS011;1581;51.568;6.998;2024-03-23T09:51:31;14.07;;;2.60;;
3141;SDS011;1581;51.568;6.998;2024-03-23T09:53:58;10.53;;;2.77;;
3141;SDS011;1581;51.568;6.998;2024-03-23T09:56:24;12.73;;;2.30;;
3141;SDS011;1581;51.568;6.998;2024-03-23T09:58:52;9.17;;;2.20;;
3141;SDS011;1581;51.568;6.998;2024-03-23T10:01:26;6.70;;;2.20;;
3141;SDS011;1581;51.568;6.998;2024-03-23T10:03:57;7.47;;;2.70;;
3141;SDS011;1581;51.568;6.998;2024-03-23T10:06:23;14.20;;;3.03;;
3141;SDS011;1581;51.568;6.998;2024-03-23T10:08:53;10.53;;;3.23;;
3141;SDS011;1581;51.568;6.998;2024-03-23T10:11:20;9.23;;;2.17;;
3141;SDS011;1581;51.568;6.998;2024-03-23T10:13:47;4.33;;;2.10;;
3141;SDS011;1581;51.568;6.998;2024-03-23T10:16:20;7.03;;;1.87;;
3141;SDS011;1581;51.568;6.998;2024-03-23T10:18:49;3.03;;;1.50;;
3141;SDS011;1581;51.568;6.998;2024-03-23T10:21:16;9.10;;;2.13;;
3141;SDS011;1581;51.568;6.998;2024-03-23T10:23:44;7.60;;;2.17;;
3141;SDS011;1581;51.568;6.998;2024-03-23T10:26:16;12.20;;;2.40;;
3141;SDS011;1581;51.568;6.998;2024-03-23T10:28:53;5.13;;;1.73;;
3141;SDS011;1581;51.568;6.998;2024-03-23T10:31:23;2.83;;;1.50;;
3141;SDS011;1581;51.568;6.998;2024-03-23T10:33:50;4.40;;;1.80;;
3141;SDS011;1581;51.568;6.998;2024-03-23T10:36:23;8.87;;;3.53;;
3141;SDS011;1581;51.568;6.998;2024-03-23T10:38:54;11.83;;;2.30;;
3141;SDS011;1581;51.568;6.998;2024-03-23T10:41:21;9.10;;;2.00;;
3141;SDS011;1581;51.568;6.998;2024-03-23T10:43:49;6.53;;;1.70;;
3141;SDS011;1581;51.568;6.998;2024-03-23T10:46:15;21.80;;;1.90;;
3141;SDS011;1581;51.568;6.998;2024-03-23T10:48:43;5.90;;;1.43;;
3141;SDS011;1581;51.568;6.998;2024-03-23T10:51:10;8.70;;;1.30;;
3141;SDS011;1581;51.568;6.998;2024-03-23T10:53:38;4.50;;;1.40;;
3141;SDS011;1581;51.568;6.998;2024-03-23T10:56:05;3.87;;;1.63;;
3141;SDS011;1581;51.568;6.998;2024-03-23T10:58:35;3.43;;;1.27;;
3141;SDS011;1581;51.568;6.998;2024-03-23T11:01:04;4.30;;;1.50;;
3141;SDS011;1581;51.568;6.998;2024-03-23T11:03:32;8.47;;;2.67;;
3141;SDS011;1581;51.568;6.998;2024-03-23T11:05:59;3.13;;;1.30;;
3141;SDS011;1581;51.568;6.998;2024-03-23T11:08:31;2.27;;;1.37;;
3141;SDS011;1581;51.568;6.998;2024-03-23T11:11:13;5.40;;;1.83;;
3141;SDS011;1581;51.568;6.998;2024-03-23T11:13:43;7.50;;;1.37;;
3141;SDS011;1581;51.568;6.998;2024-03-23T11:16:13;6.10;;;1.30;;
3141;SDS011;1581;51.568;6.998;2024-03-23T11:18:41;4.07;;;1.27;;
3141;SDS011;1581;51.568;6.998;2024-03-23T11:21:09;3.97;;;1.10;;
3141;SDS011;1581;51.568;6.998;2024-03-23T11:23:37;6.50;;;1.00;;
3141;SDS011;1581;51.568;6.998;2024-03-23T11:26:06;7.60;;;1.20;;
3141;SDS011;1581;51.568;6.998;2024-03-23T11:28:35;2.10;;;1.20;;
3141;SDS011;1581;51.568;6.998;2024-03-23T11:31:06;7.37;;;1.17;;
3141;SDS011;1581;51.568;6.998;2024-03-23T11:33:36;5.10;;;1.93;;
3141;SDS011;1581;51.568;6.998;2024-03-23T11:36:03;5.47;;;1.60;;
3141;SDS011;1581;51.568;6.998;2024-03-23T11:38:31;7.53;;;2.00;;
3141;SDS011;1581;51.568;6.998;2024-03-23T11:41:02;9.43;;;1.90;;
3141;SDS011;1581;51.568;6.998;2024-03-23T11:43:30;5.00;;;1.67;;
3141;SDS011;1581;51.568;6.998;2024-03-23T11:45:57;4.87;;;1.70;;
3141;SDS011;1581;51.568;6.998;2024-03-23T11:48:28;6.40;;;2.00;;
3141;SDS011;1581;51.568;6.998;2024-03-23T11:50:56;9.00;;;2.00;;
3141;SDS011;1581;51.568;6.998;2024-03-23T11:53:24;2.23;;;1.30;;
3141;SDS011;1581;51.568;6.998;2024-03-23T11:55:53;7.50;;;1.80;;
3141;SDS011;1581;51.568;6.998;2024-03-23T11:58:23;9.60;;;1.43;;
3141;SDS011;1581;51.568;6.998;2024-03-23T12:00:50;8.10;;;1.93;;
3141;SDS011;1581;51.568;6.998;2024-03-23T12:03:20;8.10;;;2.13;;
3141;SDS011;1581;51.568;6.998;2024-03-23T12:05:50;6.50;;;1.70;;
3141;SDS011;1581;51.568;6.998;2024-03-23T12:08:20;10.37;;;1.70;;
3141;SDS011;1581;51.568;6.998;2024-03-23T12:10:49;4.43;;;1.90;;
3141;SDS011;1581;51.568;6.998;2024-03-23T12:13:19;2.87;;;1.30;;
3141;SDS011;1581;51.568;6.998;2024-03-23T12:15:47;3.20;;;0.90;;
3141;SDS011;1581;51.568;6.998;2024-03-23T12:18:17;3.90;;;1.23;;
3141;SDS011;1581;51.568;6.998;2024-03-23T12:20:49;3.40;;;0.90;;
3141;SDS011;1581;51.568;6.998;2024-03-23T12:23:17;4.00;;;1.20;;
3141;SDS011;1581;51.568;6.998;2024-03-23T12:25:43;5.97;;;1.40;;
3141;SDS011;1581;51.568;6.998;2024-03-23T12:28:10;4.80;;;0.90;;
3141;SDS011;1581;51.568;6.998;2024-03-23T12:30:38;5.63;;;1.57;;
3141;SDS011;1581;51.568;6.998;2024-03-23T12:33:06;3.93;;;1.30;;
3141;SDS011;1581;51.568;6.998;2024-03-23T12:35:33;3.10;;;1.20;;
3141;SDS011;1581;51.568;6.998;2024-03-23T12:38:03;7.80;;;1.60;;
3141;SDS011;1581;51.568;6.998;2024-03-23T12:40:32;9.20;;;1.27;;
3141;SDS011;1581;51.568;6.998;2024-03-23T12:43:01;5.33;;;1.20;;
3141;SDS011;1581;51.568;6.998;2024-03-23T12:45:27;1.80;;;0.93;;
3141;SDS011;1581;51.568;6.998;2024-03-23T12:47:55;2.63;;;0.90;;
3141;SDS011;1581;51.568;6.998;2024-03-23T12:50:21;1.83;;;1.00;;
3141;SDS011;1581;51.568;6.998;2024-03-23T12:52:49;2.07;;;0.93;;
3141;SDS011;1581;51.568;6.998;2024-03-23T12:55:17;5.27;;;0.93;;
3141;SDS011;1581;51.568;6.998;2024-03-23T12:57:45;2.63;;;0.93;;
3141;SDS011;1581;51.568;6.998;2024-03-23T13:00:14;1.53;;;0.93;;
3141;SDS011;1581;51.568;6.998;2024-03-23T13:02:43;2.80;;;1.20;;
3141;SDS011;1581;51.568;6.998;2024-03-23T13:05:10;13.30;;;1.83;;
3141;SDS011;1581;51.568;6.998;2024-03-23T13:07:37;2.30;;;1.43;;
3141;SDS011;1581;51.568;6.998;2024-03-23T13:10:04;2.73;;;1.13;;
3141;SDS011;1581;51.568;6.998;2024-03-23T13:12:34;4.53;;;1.70;;
3141;SDS011;1581;51.568;6.998;2024-03-23T13:15:00;7.13;;;1.90;;
3141;SDS011;1581;51.568;6.998;2024-03-23T13:17:27;7.57;;;1.87;;
3141;SDS011;1581;51.568;6.998;2024-03-23T13:19:55;5.50;;;2.40;;
3141;SDS011;1581;51.568;6.998;2024-03-23T13:22:22;5.17;;;1.90;;
3141;SDS011;1581;51.568;6.998;2024-03-23T13:24:49;6.20;;;1.50;;
3141;SDS011;1581;51.568;6.998;2024-03-23T13:27:16;7.33;;;1.93;;
3141;SDS011;1581;51.568;6.998;2024-03-23T13:29:45;5.40;;;1.70;;
3141;SDS011;1581;51.568;6.998;2024-03-23T13:32:12;9.57;;;1.80;;
3141;SDS011;1581;51.568;6.998;2024-03-23T13:34:39;4.53;;;1.60;;
3141;SDS011;1581;51.568;6.998;2024-03-23T13:37:05;3.30;;;1.30;;
3141;SDS011;1581;51.568;6.998;2024-03-23T13:39:34;7.83;;;1.83;;
3141;SDS011;1581;51.568;6.998;2024-03-23T13:42:01;2.30;;;1.53;;
3141;SDS011;1581;51.568;6.998;2024-03-23T13:44:28;3.70;;;1.97;;
3141;SDS011;1581;51.568;6.998;2024-03-23T13:46:56;2.80;;;1.40;;
3141;SDS011;1581;51.568;6.998;2024-03-23T13:49:24;3.50;;;1.13;;
3141;SDS011;1581;51.568;6.998;2024-03-23T13:51:54;6.87;;;1.50;;
3141;SDS011;1581;51.568;6.998;2024-03-23T13:54:24;1.07;;;1.00;;
3141;SDS011;1581;51.568;6.998;2024-03-23T13:56:51;3.30;;;1.53;;
3141;SDS011;1581;51.568;6.998;2024-03-23T13:59:19;3.80;;;1.57;;
3141;SDS011;1581;51.568;6.998;2024-03-23T14:01:46;7.40;;;1.57;;
3141;SDS011;1581;51.568;6.998;2024-03-23T14:04:15;8.27;;;1.87;;
3141;SDS011;1581;51.568;6.998;2024-03-23T14:06:41;3.33;;;1.17;;
3141;SDS011;1581;51.568;6.998;2024-03-23T14:09:10;1.93;;;1.17;;
3141;SDS011;1581;51.568;6.998;2024-03-23T14:11:36;4.00;;;1.47;;
3141;SDS011;1581;51.568;6.998;2024-03-23T14:14:05;3.43;;;1.30;;
3141;SDS011;1581;51.568;6.998;2024-03-23T14:16:34;4.43;;;1.40;;
3141;SDS011;1581;51.568;6.998;2024-03-23T14:19:02;3.78;;;1.02;;
3141;SDS011;1581;51.568;6.998;2024-03-23T14:21:31;5.68;;;0.98;;
3141;SDS011;1581;51.568;6.998;2024-03-23T14:23:59;3.88;;;1.45;;
3141;SDS011;1581;51.568;6.998;2024-03-23T14:26:26;2.55;;;1.10;;
3141;SDS011;1581;51.568;6.998;2024-03-23T14:28:53;3.63;;;1.38;;
3141;SDS011;1581;51.568;6.998;2024-03-23T14:31:19;2.67;;;1.00;;
3141;SDS011;1581;51.568;6.998;2024-03-23T14:33:47;2.88;;;0.90;;
3141;SDS011;1581;51.568;6.998;2024-03-23T14:36:13;1.98;;;0.75;;
3141;SDS011;1581;51.568;6.998;2024-03-23T14:38:46;2.88;;;1.02;;
3141;SDS011;1581;51.568;6.998;2024-03-23T14:41:12;2.50;;;1.10;;
3141;SDS011;1581;51.568;6.998;2024-03-23T14:43:40;4.23;;;1.23;;
3141;SDS011;1581;51.568;6.998;2024-03-23T14:46:09;3.83;;;1.00;;
3141;SDS011;1581;51.568;6.998;2024-03-23T14:48:38;5.43;;;1.20;;
3141;SDS011;1581;51.568;6.998;2024-03-23T14:51:04;1.97;;;1.47;;
3141;SDS011;1581;51.568;6.998;2024-03-23T14:53:34;2.97;;;1.00;;
3141;SDS011;1581;51.568;6.998;2024-03-23T14:56:06;2.53;;;1.17;;
3141;SDS011;1581;51.568;6.998;2024-03-23T14:58:34;2.00;;;1.10;;
3141;SDS011;1581;51.568;6.998;2024-03-23T15:01:01;2.47;;;1.30;;
3141;SDS011;1581;51.568;6.998;2024-03-23T15:03:28;2.87;;;0.83;;
3141;SDS011;1581;51.568;6.998;2024-03-23T15:05:56;14.77;;;1.73;;
3141;SDS011;1581;51.568;6.998;2024-03-23T15:08:24;2.00;;;1.03;;
3141;SDS011;1581;51.568;6.998;2024-03-23T15:10:52;2.60;;;0.87;;
3141;SDS011;1581;51.568;6.998;2024-03-23T15:13:20;2.13;;;1.37;;
3141;SDS011;1581;51.568;6.998;2024-03-23T15:15:49;4.80;;;1.13;;
3141;SDS011;1581;51.568;6.998;2024-03-23T15:18:17;4.20;;;0.93;;
3141;SDS011;1581;51.568;6.998;2024-03-23T15:20:51;3.63;;;0.80;;
3141;SDS011;1581;51.568;6.998;2024-03-23T15:23:18;1.97;;;0.90;;
3141;SDS011;1581;51.568;6.998;2024-03-23T15:25:53;4.93;;;1.00;;
3141;SDS011;1581;51.568;6.998;2024-03-23T15:28:21;3.45;;;1.00;;
3141;SDS011;1581;51.568;6.998;2024-03-23T15:30:49;1.65;;;1.05;;
3141;SDS011;1581;51.568;6.998;2024-03-23T15:33:15;3.13;;;1.17;;
3141;SDS011;1581;51.568;6.998;2024-03-23T15:35:43;3.10;;;1.00;;
3141;SDS011;1581;51.568;6.998;2024-03-23T15:38:09;8.48;;;1.30;;
3141;SDS011;1581;51.568;6.998;2024-03-23T15:40:36;5.55;;;1.40;;
3141;SDS011;1581;51.568;6.998;2024-03-23T15:43:04;4.35;;;1.38;;
3141;SDS011;1581;51.568;6.998;2024-03-23T15:45:32;2.70;;;1.40;;
3141;SDS011;1581;51.568;6.998;2024-03-23T15:47:58;4.40;;;1.50;;
3141;SDS011;1581;51.568;6.998;2024-03-23T15:50:25;2.42;;;1.38;;
3141;SDS011;1581;51.568;6.998;2024-03-23T15:52:52;4.43;;;1.10;;
3141;SDS011;1581;51.568;6.998;2024-03-23T15:55:22;1.83;;;1.30;;
3141;SDS011;1581;51.568;6.998;2024-03-23T15:57:49;2.78;;;1.02;;
3141;SDS011;1581;51.568;6.998;2024-03-23T16:00:16;4.10;;;1.48;;
3141;SDS011;1581;51.568;6.998;2024-03-23T16:02:45;3.53;;;1.48;;
3141;SDS011;1581;51.568;6.998;2024-03-23T16:05:13;3.70;;;1.20;;
3141;SDS011;1581;51.568;6.998;2024-03-23T16:07:40;3.60;;;1.40;;
3141;SDS011;1581;51.568;6.998;2024-03-23T16:10:07;3.13;;;1.33;;
3141;SDS011;1581;51.568;6.998;2024-03-23T16:12:34;5.75;;;1.33;;
3141;SDS011;1581;51.568;6.998;2024-03-23T16:15:02;8.13;;;1.65;;
3141;SDS011;1581;51.568;6.998;2024-03-23T16:17:30;9.15;;;1.40;;
3141;SDS011;1581;51.568;6.998;2024-03-23T16:20:01;3.90;;;1.65;;